Time;durP1;ratioP1;P1;durP2;ratioP2;P2;SDS_P1;SDS_P2;PMS_P1;PMS_P2;Temp;Humidity;BMP_temperature;BMP_pressure;BME280_temperature;BME280_humidity;BME280_pressure;Samples;Min_cycle;Max_cycle;Signal;HPM_P1;HPM_P2
2021/04/12 00:00:30;;;;;;;6.13;3.20;;;358.90;1203.20;;;;;;5058032;28;20084;-71
2021/04/12 00:03:18;;;;;;;11.60;3.25;;;358.70;1203.20;;;;;;5057184;28;20032;-70
2021/04/12 00:06:10;;;;;;;8.50;3.13;;;358.50;1203.20;;;;;;5056975;28;20459;-70
2021/04/12 00:08:39;;;;;;;7.07;3.30;;;358.50;1203.20;;;;;;5057488;28;20025;-70
2021/04/12 00:11:22;;;;;;;7.47;3.15;;;358.40;1228.80;;;;;;5057162;28;20036;-71
2021/04/12 00:14:00;;;;;;;5.85;3.15;;;358.40;1228.80;;;;;;5056893;28;20325;-70
2021/04/12 00:16:41;;;;;;;5.75;3.78;;;358.50;1254.40;;;;;;5057423;28;20025;-70
2021/04/12 00:19:20;;;;;;;6.22;3.42;;;358.40;1228.80;;;;;;5057308;28;20024;-70
2021/04/12 00:22:09;;;;;;;7.55;3.45;;;358.50;1228.80;;;;;;5057114;28;20028;-71
2021/04/12 00:24:41;;;;;;;5.93;2.78;;;358.60;1203.20;;;;;;5057222;28;20033;-71
2021/04/12 00:27:20;;;;;;;9.32;3.30;;;358.70;1228.80;;;;;;5057618;28;20020;-69
2021/04/12 00:29:46;;;;;;;;;;;358.50;1203.20;;;;;;5057055;28;20017;-69
2021/04/12 00:32:30;;;;;;;12.85;4.00;;;358.50;1228.80;;;;;;5057189;28;20011;-70
2021/04/12 00:35:09;;;;;;;9.30;3.92;;;358.50;1203.20;;;;;;5057141;28;20021;-69
2021/04/12 00:37:49;;;;;;;5.78;2.85;;;358.50;1203.20;;;;;;5056883;28;20025;-70
2021/04/12 00:40:21;;;;;;;6.35;2.90;;;358.60;1203.20;;;;;;5057074;28;20048;-70
2021/04/12 00:43:05;;;;;;;7.57;3.60;;;358.50;1228.80;;;;;;5057069;28;20029;-70
2021/04/12 00:46:01;;;;;;;14.02;3.58;;;358.50;1280.00;;;;;;5056877;28;20029;-71
2021/04/12 00:48:54;;;;;;;7.10;3.47;;;358.70;1254.40;;;;;;5057301;28;20021;-71
2021/04/12 00:51:54;;;;;;;7.13;3.30;;;358.60;1228.80;;;;;;5056428;28;20428;-69
2021/04/12 00:54:41;;;;;;;9.85;3.45;;;358.40;1280.00;;;;;;5057133;28;20305;-71
2021/04/12 00:57:25;;;;;;;9.45;3.45;;;358.40;1254.40;;;;;;5057207;28;20025;-69
2021/04/12 01:00:07;;;;;;;9.63;2.83;;;358.40;1280.00;;;;;;5056925;28;20495;-69
2021/04/12 01:02:48;;;;;;;6.20;3.00;;;333.70;1280.00;;;;;;5056947;28;20403;-70
2021/04/12 01:05:41;;;;;;;7.18;3.00;;;358.40;1280.00;;;;;;5056329;28;20058;-70
2021/04/12 01:08:16;;;;;;;6.40;3.28;;;358.40;1305.60;;;;;;5056594;28;20375;-70
2021/04/12 01:11:00;;;;;;;6.47;3.25;;;358.50;1254.40;;;;;;5038975;28;20025;-69
2021/04/12 01:13:41;;;;;;;8.00;3.47;;;333.70;1280.00;;;;;;5056794;28;20025;-69
2021/04/12 01:16:18;;;;;;;7.57;3.30;;;333.70;1331.20;;;;;;5059232;28;20025;-71
2021/04/12 01:19:10;;;;;;;9.50;3.30;;;333.70;1280.00;;;;;;5060457;28;20053;-70
2021/04/12 01:21:51;;;;;;;6.72;3.63;;;333.70;1280.00;;;;;;5060502;28;20438;-70
2021/04/12 01:25:12;;;;;;;9.90;4.10;;;333.70;1280.00;;;;;;5060853;28;20037;-69
2021/04/12 01:27:49;;;;;;;9.55;3.40;;;333.60;1280.00;;;;;;5029323;28;20087;-70
2021/04/12 01:30:34;;;;;;;7.10;3.38;;;333.60;1254.40;;;;;;5060274;28;20024;-71
2021/04/12 01:33:21;;;;;;;7.95;4.18;;;333.60;1280.00;;;;;;5060808;28;20029;-70
2021/04/12 01:36:14;;;;;;;5.63;3.42;;;333.60;1280.00;;;;;;5060097;28;20386;-71
2021/04/12 01:38:56;;;;;;;5.70;3.08;;;333.40;1280.00;;;;;;5059838;28;20351;-69
2021/04/12 01:42:00;;;;;;;7.53;3.38;;;333.40;1305.60;;;;;;5059748;28;20029;-69
2021/04/12 01:44:29;;;;;;;6.72;3.67;;;333.40;1280.00;;;;;;5060446;28;20396;-71
2021/04/12 01:47:33;;;;;;;6.75;3.25;;;333.40;1305.60;;;;;;5060124;28;20120;-70
2021/04/12 01:50:04;;;;;;;9.10;3.20;;;333.40;1305.60;;;;;;5059873;28;20466;-70
2021/04/12 01:52:55;;;;;;;7.97;3.20;;;333.40;1305.60;;;;;;5060128;28;20029;-69
2021/04/12 01:55:40;;;;;;;5.78;3.15;;;333.40;1305.60;;;;;;5060116;28;20033;-71
2021/04/12 01:58:25;;;;;;;6.72;3.65;;;333.40;1305.60;;;;;;5060339;28;20423;-70
2021/04/12 02:01:07;;;;;;;8.48;3.67;;;333.40;1305.60;;;;;;5059701;28;20045;-69
2021/04/12 02:03:39;;;;;;;7.00;3.42;;;333.30;1305.60;;;;;;5059648;28;20048;-69
2021/04/12 02:06:20;;;;;;;11.18;3.70;;;333.30;1305.60;;;;;;5060067;28;20088;-69
2021/04/12 02:09:24;;;;;;;7.07;3.47;;;333.20;1331.20;;;;;;5059539;28;20025;-71
2021/04/12 02:12:08;;;;;;;7.22;3.50;;;333.10;1356.80;;;;;;5028785;28;20420;-70
2021/04/12 02:14:39;;;;;;;6.40;3.58;;;333.10;1331.20;;;;;;5059435;28;20344;-71
2021/04/12 02:17:17;;;;;;;8.82;3.58;;;333.10;1356.80;;;;;;5059679;28;20056;-71
2021/04/12 02:20:16;;;;;;;8.70;4.25;;;333.10;1356.80;;;;;;5059932;28;20293;-70
2021/04/12 02:23:05;;;;;;;7.97;3.60;;;333.00;1356.80;;;;;;5059582;28;20028;-70
2021/04/12 02:25:35;;;;;;;7.45;3.40;;;332.80;1356.80;;;;;;5059755;28;20040;-70
2021/04/12 02:28:19;;;;;;;6.03;3.20;;;308.00;1356.80;;;;;;5058168;28;20665;-70
2021/04/12 02:30:57;;;;;;;8.75;3.40;;;308.10;1331.20;;;;;;5058572;28;20371;-71
2021/04/12 02:33:44;;;;;;;8.68;3.70;;;308.10;1331.20;;;;;;5059071;28;20028;-70
2021/04/12 02:36:44;;;;;;;7.50;3.40;;;308.10;1331.20;;;;;;5058968;28;20040;-69
2021/04/12 02:39:38;;;;;;;10.00;4.05;;;308.00;1331.20;;;;;;4977894;28;20054;-71
2021/04/12 02:42:53;;;;;;;7.80;3.78;;;308.00;1331.20;;;;;;4978010;28;20204;-70
2021/04/12 02:45:34;;;;;;;6.25;3.47;;;307.90;1331.20;;;;;;4933867;29;20402;-70
2021/04/12 02:48:14;;;;;;;7.10;3.58;;;307.90;1356.80;;;;;;4939601;29;20044;-71
2021/04/12 02:50:58;;;;;;;7.72;3.72;;;308.00;1331.20;;;;;;4939459;29;20047;-69
2021/04/12 02:53:57;;;;;;;8.15;4.63;;;307.90;1356.80;;;;;;4939699;29;20086;-69
2021/04/12 02:56:33;;;;;;;12.60;3.97;;;307.80;1356.80;;;;;;4939654;29;20454;-71
2021/04/12 02:59:23;;;;;;;8.35;3.75;;;307.80;1331.20;;;;;;4939202;29;20204;-70
2021/04/12 03:02:25;;;;;;;7.15;3.50;;;307.80;1356.80;;;;;;4939419;29;20382;-70
2021/04/12 03:05:10;;;;;;;9.73;4.03;;;307.80;1356.80;;;;;;4938815;29;20415;-70
2021/04/12 03:07:54;;;;;;;6.60;3.88;;;307.70;1356.80;;;;;;4939545;29;20123;-68
2021/04/12 03:11:04;;;;;;;10.93;3.85;;;307.60;1382.40;;;;;;4938909;29;20466;-70
2021/04/12 03:14:07;;;;;;;11.30;4.18;;;307.80;1356.80;;;;;;4917375;29;20079;-70
2021/04/12 03:16:49;;;;;;;7.95;3.80;;;307.80;1356.80;;;;;;4991523;28;20458;-71
2021/04/12 03:19:41;;;;;;;7.05;3.47;;;307.70;1382.40;;;;;;4996667;28;20125;-69
2021/04/12 03:22:26;;;;;;;9.10;3.97;;;307.80;1382.40;;;;;;5037204;28;20083;-70
2021/04/12 03:25:10;;;;;;;11.77;4.45;;;307.70;1382.40;;;;;;5040472;28;20301;-70
2021/04/12 03:28:04;;;;;;;5.82;3.45;;;307.60;1408.00;;;;;;5057732;28;20032;-69
2021/04/12 03:30:45;;;;;;;8.77;3.60;;;307.70;1382.40;;;;;;5058583;28;20057;-71
2021/04/12 03:33:48;;;;;;;12.55;3.67;;;307.60;1382.40;;;;;;5058197;28;20120;-70
2021/04/12 03:36:42;;;;;;;6.97;4.32;;;307.70;1382.40;;;;;;5058394;28;20068;-69
2021/04/12 03:39:10;;;;;;;6.88;3.50;;;307.50;1382.40;;;;;;5057598;28;20072;-72
2021/04/12 03:42:04;;;;;;;8.02;4.07;;;307.40;1382.40;;;;;;5057684;28;20078;-70
2021/04/12 03:45:06;;;;;;;9.90;3.72;;;307.30;1408.00;;;;;;5057791;28;20036;-69
2021/04/12 03:47:51;;;;;;;8.05;3.55;;;307.50;1408.00;;;;;;5057413;28;20063;-70
2021/04/12 03:50:37;;;;;;;6.40;3.88;;;307.50;1382.40;;;;;;5058192;28;20025;-69
2021/04/12 03:53:30;;;;;;;15.70;3.75;;;307.50;1408.00;;;;;;5058080;28;20045;-70
2021/04/12 03:56:40;;;;;;;7.38;4.22;;;307.40;1408.00;;;;;;5057793;28;20391;-70
2021/04/12 03:59:16;;;;;;;10.15;3.35;;;307.50;1382.40;;;;;;5053523;28;20459;-71
2021/04/12 04:01:52;;;;;;;6.55;3.70;;;307.40;1382.40;;;;;;5057156;28;20021;-71
2021/04/12 04:04:34;;;;;;;6.63;3.22;;;307.50;1408.00;;;;;;5057817;28;20033;-70
2021/04/12 04:07:26;;;;;;;7.20;3.75;;;307.50;1408.00;;;;;;5057592;28;20340;-70
2021/04/12 04:09:54;;;;;;;6.07;3.58;;;307.60;1408.00;;;;;;5057577;28;20025;-69
2021/04/12 04:12:27;;;;;;;8.50;3.75;;;307.70;1408.00;;;;;;5057743;28;20060;-70
2021/04/12 04:15:07;;;;;;;7.78;3.38;;;307.60;1408.00;;;;;;5057150;28;20032;-70
2021/04/12 04:18:02;;;;;;;9.38;4.53;;;307.60;1382.40;;;;;;5056730;28;20386;-69
2021/04/12 04:20:40;;;;;;;8.93;3.28;;;307.80;1382.40;;;;;;5057640;28;20028;-70
2021/04/12 04:23:21;;;;;;;8.30;4.40;;;307.80;1382.40;;;;;;5057073;28;20024;-72
2021/04/12 04:25:55;;;;;;;11.50;3.58;;;307.90;1382.40;;;;;;5057146;28;20033;-70
2021/04/12 04:28:27;;;;;;;10.82;5.70;;;308.00;1356.80;;;;;;5057504;28;20025;-70
2021/04/12 04:31:25;;;;;;;8.48;4.50;;;332.80;1408.00;;;;;;5057422;28;20028;-69
2021/04/12 04:34:09;;;;;;;6.57;4.13;;;332.80;1382.40;;;;;;5057458;28;20029;-71
2021/04/12 04:37:08;;;;;;;9.55;4.88;;;332.90;1382.40;;;;;;5057198;28;20033;-71
2021/04/12 04:40:07;;;;;;;9.88;5.15;;;333.10;1408.00;;;;;;5057319;28;20194;-69
2021/04/12 04:42:44;;;;;;;6.90;3.53;;;333.10;1382.40;;;;;;5057106;28;20025;-71
2021/04/12 04:45:23;;;;;;;22.67;12.27;;;333.00;1382.40;;;;;;5057281;28;20032;-70
2021/04/12 04:48:10;;;;;;;19.07;10.27;;;333.10;1382.40;;;;;;5057365;28;20058;-69
2021/04/12 04:51:13;;;;;;;23.20;12.57;;;333.10;1408.00;;;;;;5056375;28;20021;-70
2021/04/12 04:53:42;;;;;;;15.05;9.00;;;333.40;1408.00;;;;;;5056982;28;20396;-70
2021/04/12 04:56:52;;;;;;;10.57;5.05;;;333.40;1356.80;;;;;;5057230;28;20028;-70
2021/04/12 04:59:55;;;;;;;16.95;7.13;;;333.50;1356.80;;;;;;5057039;28;20052;-71
2021/04/12 05:02:57;;;;;;;14.88;5.88;;;333.60;1356.80;;;;;;5056986;28;20021;-69
2021/04/12 05:05:33;;;;;;;14.40;4.50;;;333.50;1356.80;;;;;;5056810;28;20029;-71
2021/04/12 05:08:21;;;;;;;11.60;4.18;;;333.70;1356.80;;;;;;5057165;28;20064;-69
2021/04/12 05:11:12;;;;;;;14.00;4.85;;;333.70;1356.80;;;;;;5056891;28;20029;-71
2021/04/12 05:14:02;;;;;;;15.18;4.68;;;333.60;1356.80;;;;;;5057111;28;20029;-70
2021/04/12 05:17:07;;;;;;;20.92;4.45;;;333.50;1382.40;;;;;;5057042;28;20021;-70
2021/04/12 05:19:41;;;;;;;12.35;4.35;;;333.50;1382.40;;;;;;4975663;28;20135;-70
2021/04/12 05:22:17;;;;;;;6.82;4.13;;;333.30;1382.40;;;;;;4975614;28;20029;-72
2021/04/12 05:25:14;;;;;;;9.23;4.15;;;333.10;1382.40;;;;;;4975599;28;20047;-71
2021/04/12 05:28:00;;;;;;;11.40;4.10;;;332.90;1433.60;;;;;;4975638;28;20031;-70
2021/04/12 05:30:44;;;;;;;11.40;4.97;;;333.10;1433.60;;;;;;4981404;28;20038;-70
2021/04/12 05:33:48;;;;;;;10.18;4.60;;;333.10;1408.00;;;;;;4994393;28;20029;-70
2021/04/12 05:36:45;;;;;;;10.48;4.70;;;333.30;1382.40;;;;;;4993700;28;20446;-70
2021/04/12 05:39:20;;;;;;;7.63;4.30;;;333.40;1382.40;;;;;;4971465;28;20038;-70
2021/04/12 05:41:57;;;;;;;11.95;5.80;;;333.50;1408.00;;;;;;4994423;28;20026;-70
2021/04/12 05:44:56;;;;;;;9.13;4.70;;;333.50;1408.00;;;;;;4995204;28;20039;-70
2021/04/12 05:47:52;;;;;;;11.07;5.30;;;333.60;1356.80;;;;;;4994404;28;20034;-70
2021/04/12 05:50:29;;;;;;;8.60;5.03;;;333.60;1356.80;;;;;;4992692;28;20093;-71
2021/04/12 05:53:23;;;;;;;13.85;5.10;;;358.40;1382.40;;;;;;4988824;28;20030;-70
2021/04/12 05:56:09;;;;;;;17.60;4.72;;;358.40;1356.80;;;;;;5034815;28;20044;-71
2021/04/12 05:58:38;;;;;;;8.25;4.45;;;358.40;1356.80;;;;;;5074125;28;20033;-69
2021/04/12 06:01:40;;;;;;;11.02;5.10;;;358.40;1356.80;;;;;;5056333;28;20542;-69
2021/04/12 06:04:33;;;;;;;10.90;4.82;;;358.40;1356.80;;;;;;5046973;28;20025;-69
2021/04/12 06:07:05;;;;;;;8.90;5.07;;;358.60;1356.80;;;;;;5044109;28;20057;-70
2021/04/12 06:09:49;;;;;;;9.50;4.38;;;358.40;1382.40;;;;;;5044211;28;20093;-69
2021/04/12 06:12:33;;;;;;;15.30;4.55;;;358.40;1356.80;;;;;;5050121;28;20032;-70
2021/04/12 06:15:05;;;;;;;8.70;4.65;;;358.50;1356.80;;;;;;5054653;28;20113;-71
2021/04/12 06:17:55;;;;;;;14.32;6.30;;;358.60;1382.40;;;;;;5054533;28;20053;-70
2021/04/12 06:20:56;;;;;;;33.45;7.93;;;358.80;1356.80;;;;;;5057215;28;20420;-73
2021/04/12 06:23:52;;;;;;;12.05;7.20;;;359.20;1356.80;;;;;;5057568;28;20319;-70
2021/04/12 06:26:41;;;;;;;9.13;4.28;;;384.10;1305.60;;;;;;5058103;28;20351;-69
2021/04/12 06:29:15;;;;;;;19.83;6.57;;;384.10;1305.60;;;;;;5058766;28;20408;-69
2021/04/12 06:32:02;;;;;;;13.65;4.80;;;384.30;1305.60;;;;;;5051847;28;20021;-71
2021/04/12 06:34:37;;;;;;;12.15;4.22;;;384.50;1254.40;;;;;;5023163;28;20425;-73
2021/04/12 06:37:31;;;;;;;10.30;4.03;;;384.70;1254.40;;;;;;5039005;28;20017;-71
2021/04/12 06:40:25;;;;;;;17.33;5.43;;;384.70;1254.40;;;;;;4969498;28;20038;-71
2021/04/12 06:43:15;;;;;;;19.13;7.97;;;409.60;1280.00;;;;;;4969997;28;20023;-72
2021/04/12 06:46:18;;;;;;;14.05;6.50;;;409.80;1228.80;;;;;;4959087;28;20035;-72
2021/04/12 06:49:05;;;;;;;30.75;6.28;;;410.00;1254.40;;;;;;4957835;28;20055;-70
2021/04/12 06:51:52;;;;;;;14.02;8.30;;;410.20;1177.60;;;;;;4960630;28;20039;-71
2021/04/12 06:54:52;;;;;;;16.88;4.03;;;410.40;1203.20;;;;;;4957670;28;20090;-71
2021/04/12 06:57:30;;;;;;;22.58;4.78;;;410.50;1177.60;;;;;;4955155;29;20455;-71
2021/04/12 07:00:20;;;;;;;12.57;4.13;;;435.30;1177.60;;;;;;4964070;28;20059;-71
2021/04/12 07:03:04;;;;;;;11.40;3.72;;;435.50;1177.60;;;;;;4967860;28;20794;-71
2021/04/12 07:06:07;;;;;;;13.80;3.67;;;435.60;1152.00;;;;;;4968338;28;20037;-73
2021/04/12 07:08:54;;;;;;;10.13;4.85;;;435.70;1152.00;;;;;;4964340;28;20034;-70
2021/04/12 07:11:43;;;;;;;13.80;6.30;;;435.90;1152.00;;;;;;4967343;28;20027;-72
2021/04/12 07:14:47;;;;;;;15.68;4.80;;;436.00;1126.40;;;;;;4970257;28;20066;-70
2021/04/12 07:17:47;;;;;;;17.52;10.93;;;436.00;1126.40;;;;;;5029998;28;20037;-73
2021/04/12 07:20:47;;;;;;;21.80;15.15;;;436.10;1126.40;;;;;;5055811;28;20126;-72
2021/04/12 07:23:34;;;;;;;36.05;20.70;;;460.80;1152.00;;;;;;5038767;28;20022;-72
2021/04/12 07:26:20;;;;;;;43.17;20.63;;;460.80;1126.40;;;;;;5038241;28;20336;-73
2021/04/12 07:28:58;;;;;;;8.90;4.47;;;460.90;1152.00;;;;;;5026836;28;20045;-72
2021/04/12 07:31:54;;;;;;;30.70;10.20;;;460.80;1126.40;;;;;;5046325;28;20025;-72
2021/04/12 07:34:50;;;;;;;8.18;3.15;;;436.00;1100.80;;;;;;5054938;28;20021;-72
2021/04/12 07:37:24;;;;;;;9.82;3.90;;;435.60;1126.40;;;;;;5057072;28;20062;-71
2021/04/12 07:40:44;;;;;;;9.02;3.65;;;435.70;1152.00;;;;;;5056036;28;20017;-71
2021/04/12 07:43:32;;;;;;;7.78;3.80;;;435.60;1126.40;;;;;;5055434;28;20170;-74
2021/04/12 07:46:22;;;;;;;11.18;3.97;;;435.70;1126.40;;;;;;5056308;28;20033;-72
2021/04/12 07:49:25;;;;;;;6.88;3.05;;;435.70;1177.60;;;;;;5051376;28;20398;-72
2021/04/12 07:52:27;;;;;;;8.50;3.85;;;435.50;1152.00;;;;;;5047317;28;20107;-73
2021/04/12 07:55:02;;;;;;;6.30;3.90;;;435.60;1203.20;;;;;;5055376;28;20029;-72
2021/04/12 07:58:01;;;;;;;7.47;3.60;;;435.60;1152.00;;;;;;5055573;28;20040;-72
2021/04/12 08:00:35;;;;;;;11.48;4.70;;;435.80;1177.60;;;;;;5055370;28;20053;-70
2021/04/12 08:03:09;;;;;;;11.80;5.45;;;436.10;1203.20;;;;;;5035185;28;20029;-73
2021/04/12 08:06:15;;;;;;;6.68;4.15;;;435.80;1177.60;;;;;;5035144;28;20041;-73
2021/04/12 08:09:25;;;;;;;9.65;4.80;;;436.00;1152.00;;;;;;5034378;28;20039;-72
2021/04/12 08:16:04;;;;;;;28.02;12.50;;;461.00;1177.60;;;;;;5023486;28;20325;-72
2021/04/12 08:19:26;;;;;;;;;;;;;;;;;;;;;
2021/04/12 08:22:33;;;;;;;12.32;7.28;;;461.40;1152.00;;;;;;5052058;28;20025;-70
2021/04/12 08:32:17;;;;;;;11.43;3.90;;;486.50;1177.60;;;;;;5005840;28;20049;-70
2021/04/12 08:35:07;;;;;;;14.05;5.38;;;486.60;1152.00;;;;;;5011618;28;20461;-70
2021/04/12 08:38:21;;;;;;;22.77;9.10;;;486.80;1100.80;;;;;;5010133;28;20709;-69
2021/04/12 08:41:31;;;;;;;39.50;17.42;;;486.90;1126.40;;;;;;5009408;28;20994;-71
2021/04/12 08:44:12;;;;;;;23.23;9.82;;;487.10;1126.40;;;;;;5010328;28;20084;-69
2021/04/12 08:47:03;;;;;;;9.25;4.13;;;487.30;1100.80;;;;;;5011596;28;20052;-69
2021/04/12 08:50:00;;;;;;;30.80;13.40;;;486.70;1100.80;;;;;;5011655;28;20473;-71
2021/04/12 08:52:45;;;;;;;37.30;13.32;;;487.00;1126.40;;;;;;5012004;28;20029;-70
2021/04/12 08:55:44;;;;;;;48.17;13.52;;;487.30;1100.80;;;;;;5015207;28;20445;-70
2021/04/12 08:58:47;;;;;;;26.02;12.75;;;512.00;1100.80;;;;;;5033327;28;20037;-73
2021/04/12 09:01:26;;;;;;;8.35;3.95;;;512.20;1100.80;;;;;;5034588;28;20067;-70
2021/04/12 09:04:06;;;;;;;11.10;4.00;;;512.20;1075.20;;;;;;5038865;28;20049;-71
2021/04/12 09:07:15;;;;;;;10.07;3.25;;;512.20;1075.20;;;;;;5034888;28;20048;-70
2021/04/12 09:09:51;;;;;;;6.50;3.05;;;512.10;1075.20;;;;;;5015719;28;20455;-71
2021/04/12 09:12:29;;;;;;;17.50;9.90;;;487.20;1100.80;;;;;;5034819;28;20115;-68
2021/04/12 09:15:24;;;;;;;22.58;6.68;;;512.30;1100.80;;;;;;5035097;28;20047;-70
2021/04/12 09:18:07;;;;;;;6.75;2.88;;;512.50;1100.80;;;;;;5023086;28;20061;-69
2021/04/12 09:20:57;;;;;;;12.57;4.25;;;512.10;1075.20;;;;;;5034214;28;20433;-69
2021/04/12 09:23:55;;;;;;;10.63;3.17;;;512.30;1075.20;;;;;;5034122;28;20029;-70
2021/04/12 09:26:32;;;;;;;9.40;4.22;;;512.10;1075.20;;;;;;5033644;28;20025;-68
2021/04/12 09:29:14;;;;;;;7.55;3.22;;;512.50;1075.20;;;;;;5034183;28;20022;-70
2021/04/12 09:31:46;;;;;;;9.68;3.33;;;512.50;1075.20;;;;;;5037085;28;20021;-69
2021/04/12 09:34:55;;;;;;;6.68;2.97;;;512.50;1100.80;;;;;;5054215;28;20045;-69
2021/04/12 09:37:39;;;;;;;6.70;3.08;;;512.40;1100.80;;;;;;5056956;28;20052;-69
2021/04/12 09:40:33;;;;;;;6.78;3.30;;;512.40;1152.00;;;;;;5058091;28;20064;-71
2021/04/12 09:43:13;;;;;;;8.77;3.30;;;512.30;1075.20;;;;;;5057697;28;20033;-68
2021/04/12 09:45:51;;;;;;;12.10;3.30;;;512.30;1126.40;;;;;;5057824;28;20032;-69
2021/04/12 09:48:26;;;;;;;9.50;3.53;;;512.60;1100.80;;;;;;5057799;28;20037;-68
2021/04/12 09:50:58;;;;;;;8.35;3.28;;;512.90;1100.80;;;;;;5057636;28;20028;-67
2021/04/12 09:54:01;;;;;;;10.07;4.38;;;512.70;1049.60;;;;;;5057842;28;20378;-67
2021/04/12 09:56:32;;;;;;;6.50;3.53;;;537.80;1100.80;;;;;;5056866;28;20412;-69
2021/04/12 09:59:36;;;;;;;7.47;2.95;;;538.00;1075.20;;;;;;5054581;28;20120;-68
2021/04/12 10:02:41;;;;;;;11.63;3.33;;;538.00;1049.60;;;;;;5056040;28;20041;-70
2021/04/12 10:05:16;;;;;;;13.88;3.00;;;563.40;1049.60;;;;;;5016355;28;20041;-69
2021/04/12 10:08:21;;;;;;;8.65;2.80;;;563.30;1049.60;;;;;;5055481;28;20701;-69
2021/04/12 10:10:50;;;;;;;7.60;4.00;;;563.80;1049.60;;;;;;5055001;28;20063;-68
2021/04/12 10:13:32;;;;;;;10.32;4.65;;;588.80;998.40;;;;;;5055519;28;20380;-70
2021/04/12 10:16:20;;;;;;;5.55;2.58;;;589.10;1024.00;;;;;;5050900;28;20029;-70
2021/04/12 10:19:02;;;;;;;9.05;2.63;;;589.20;1024.00;;;;;;5046641;28;20033;-70
2021/04/12 10:21:31;;;;;;;5.78;2.53;;;588.90;1049.60;;;;;;5048290;28;20035;-68
2021/04/12 10:24:25;;;;;;;7.25;2.67;;;589.00;1024.00;;;;;;5045515;28;20424;-70
2021/04/12 10:27:13;;;;;;;8.02;3.30;;;588.80;998.40;;;;;;5048302;28;20123;-69
2021/04/12 10:30:00;;;;;;;4.90;2.30;;;589.00;1024.00;;;;;;5044760;28;20027;-68
2021/04/12 10:32:32;;;;;;;10.75;2.53;;;589.00;1024.00;;;;;;5046450;28;20104;-69
2021/04/12 10:35:08;;;;;;;14.75;2.63;;;589.00;1024.00;;;;;;5046298;28;20033;-69
2021/04/12 10:38:12;;;;;;;6.50;2.42;;;589.10;1024.00;;;;;;5049647;28;20036;-69
2021/04/12 10:40:53;;;;;;;12.30;3.03;;;589.00;1024.00;;;;;;5050851;28;20017;-70
2021/04/12 10:43:55;;;;;;;7.30;3.22;;;589.20;1024.00;;;;;;5044781;28;20022;-72
2021/04/12 10:46:41;;;;;;;6.75;3.15;;;589.60;998.40;;;;;;5045343;28;20036;-71
2021/04/12 10:49:17;;;;;;;8.75;3.08;;;589.10;1024.00;;;;;;5043734;28;20041;-71
2021/04/12 10:52:11;;;;;;;8.85;2.80;;;589.10;998.40;;;;;;5046623;28;20428;-70
2021/04/12 10:54:45;;;;;;;14.13;3.58;;;589.60;1024.00;;;;;;5045443;28;20555;-72
2021/04/12 10:57:29;;;;;;;8.70;2.55;;;614.70;1024.00;;;;;;5044104;28;20022;-70
2021/04/12 11:00:10;;;;;;;28.00;4.65;;;614.90;972.80;;;;;;5045313;28;20049;-70
2021/04/12 11:02:49;;;;;;;22.20;4.05;;;640.00;972.80;;;;;;5047528;28;20083;-69
2021/04/12 11:05:19;;;;;;;12.75;2.70;;;640.40;972.80;;;;;;5045071;28;20025;-69
2021/04/12 11:08:07;;;;;;;12.32;2.92;;;640.10;947.20;;;;;;5043814;28;20102;-69
2021/04/12 11:10:53;;;;;;;11.27;3.70;;;615.00;947.20;;;;;;5044618;28;20017;-68
2021/04/12 11:13:38;;;;;;;14.73;3.55;;;614.80;947.20;;;;;;5045638;28;20025;-68
2021/04/12 11:16:17;;;;;;;11.18;3.63;;;615.00;1024.00;;;;;;5027962;28;20024;-68
2021/04/12 11:19:14;;;;;;;12.00;3.35;;;615.00;947.20;;;;;;5045599;28;20017;-68
2021/04/12 11:22:12;;;;;;;30.25;5.25;;;640.40;972.80;;;;;;5046546;28;20627;-69
2021/04/12 11:24:44;;;;;;;16.80;6.30;;;665.90;972.80;;;;;;5045246;28;20498;-69
2021/04/12 11:27:49;;;;;;;9.48;4.03;;;691.50;896.00;;;;;;5044253;28;20029;-70
2021/04/12 11:30:40;;;;;;;16.02;3.28;;;717.10;921.60;;;;;;5044763;28;20027;-69
2021/04/12 11:33:13;;;;;;;13.07;3.17;;;717.20;921.60;;;;;;5045535;28;20032;-69
2021/04/12 11:35:57;;;;;;;11.60;4.47;;;717.70;896.00;;;;;;5045214;28;20427;-70
2021/04/12 11:38:30;;;;;;;9.93;2.78;;;717.50;870.40;;;;;;5045681;28;20317;-71
2021/04/12 11:41:08;;;;;;;9.38;2.63;;;666.30;896.00;;;;;;5045087;28;20021;-69
2021/04/12 11:43:38;;;;;;;7.80;2.50;;;692.00;870.40;;;;;;5055800;28;20029;-69
2021/04/12 11:46:29;;;;;;;12.80;3.28;;;716.90;896.00;;;;;;5055189;28;20036;-68
2021/04/12 11:49:12;;;;;;;6.53;2.60;;;692.10;844.80;;;;;;5055361;28;20033;-68
2021/04/12 11:51:57;;;;;;;10.95;3.10;;;692.10;870.40;;;;;;5055473;28;20017;-69
2021/04/12 11:54:41;;;;;;;9.23;2.72;;;691.20;896.00;;;;;;5038946;28;20037;-68
2021/04/12 11:57:18;;;;;;;8.60;2.58;;;691.20;896.00;;;;;;5035138;28;20036;-68
2021/04/12 11:59:43;;;;;;;11.13;3.05;;;691.80;896.00;;;;;;5035397;28;20061;-67
2021/04/12 12:02:21;;;;;;;14.70;3.28;;;717.00;896.00;;;;;;5035099;28;20088;-69
2021/04/12 12:04:57;;;;;;;13.50;3.37;;;717.70;870.40;;;;;;5035549;28;20040;-68
2021/04/12 12:07:29;;;;;;;9.45;2.88;;;742.50;896.00;;;;;;5035442;28;20392;-69
2021/04/12 12:10:12;;;;;;;33.58;11.68;;;743.20;870.40;;;;;;5035360;28;20065;-71
2021/04/12 12:12:53;;;;;;;21.00;6.35;;;768.70;819.20;;;;;;5035486;28;20029;-67
2021/04/12 12:15:40;;;;;;;14.20;3.60;;;743.30;844.80;;;;;;5035310;28;20063;-68
2021/04/12 12:18:27;;;;;;;17.48;4.80;;;768.80;819.20;;;;;;5035119;28;20099;-67
2021/04/12 12:20:59;;;;;;;22.70;6.00;;;819.50;844.80;;;;;;5034912;28;20018;-68
2021/04/12 12:23:31;;;;;;;13.07;5.32;;;870.70;844.80;;;;;;5034008;28;20622;-70
2021/04/12 12:26:02;;;;;;;15.75;5.50;;;870.70;793.60;;;;;;5034363;28;20033;-69
2021/04/12 12:28:41;;;;;;;16.67;5.10;;;845.50;819.20;;;;;;5034719;28;20340;-67
2021/04/12 12:31:32;;;;;;;11.93;6.63;;;871.10;793.60;;;;;;5034893;28;20080;-68
2021/04/12 12:34:11;;;;;;;15.38;6.97;;;896.10;768.00;;;;;;5035101;28;20111;-71
2021/04/12 12:36:55;;;;;;;19.42;6.00;;;922.00;768.00;;;;;;5034529;28;20034;-68
2021/04/12 12:39:27;;;;;;;10.25;6.70;;;972.90;768.00;;;;;;5035232;28;20061;-72
2021/04/12 12:41:54;;;;;;;18.02;8.13;;;1024.30;691.20;;;;;;5038632;28;20037;-70
2021/04/12 12:44:23;;;;;;;15.17;7.87;;;999.20;716.80;;;;;;5047755;28;20451;-72
2021/04/12 12:46:50;;;;;;;17.92;8.70;;;998.80;691.20;;;;;;5054538;28;20040;-70
2021/04/12 12:49:25;;;;;;;31.55;20.88;;;1050.10;691.20;;;;;;5054567;28;20067;-70
2021/04/12 12:52:03;;;;;;;26.02;14.32;;;1024.30;691.20;;;;;;5054840;28;20028;-70
2021/04/12 12:54:46;;;;;;;13.20;6.85;;;1050.00;691.20;;;;;;5055013;28;20039;-71
2021/04/12 12:57:35;;;;;;;20.38;11.13;;;999.00;691.20;;;;;;5054750;28;20390;-70
2021/04/12 13:00:33;;;;;;;16.42;8.20;;;1075.80;665.60;;;;;;5065257;28;20435;-70
2021/04/12 13:02:59;;;;;;;25.42;9.10;;;1127.20;640.00;;;;;;5065522;28;20048;-70
2021/04/12 13:05:33;;;;;;;21.30;17.73;;;1127.20;665.60;;;;;;5074453;28;20055;-70
2021/04/12 13:08:36;;;;;;;22.27;9.95;;;1100.80;665.60;;;;;;5074850;28;20033;-71
2021/04/12 13:11:02;;;;;;;21.85;7.20;;;1101.60;640.00;;;;;;5074517;28;20138;-70
2021/04/12 13:13:32;;;;;;;17.88;8.40;;;1178.00;588.80;;;;;;5077469;28;20052;-71
2021/04/12 13:16:17;;;;;;;18.08;7.80;;;1152.30;640.00;;;;;;5077784;28;20350;-70
2021/04/12 13:18:58;;;;;;;18.83;8.98;;;1152.80;614.40;;;;;;5078150;28;20353;-72
2021/04/12 13:21:28;;;;;;;23.65;8.38;;;1203.60;588.80;;;;;;5074224;28;20153;-71
2021/04/12 13:24:07;;;;;;;14.45;8.95;;;1254.80;588.80;;;;;;5047862;28;20033;-72
2021/04/12 13:27:11;;;;;;;19.48;8.13;;;1254.50;614.40;;;;;;5048127;28;20420;-70
2021/04/12 13:29:58;;;;;;;18.45;7.57;;;1178.00;614.40;;;;;;5048779;28;20056;-70
2021/04/12 13:32:28;;;;;;;17.38;7.85;;;1229.30;588.80;;;;;;5038265;28;20036;-72
2021/04/12 13:34:56;;;;;;;16.98;9.63;;;1305.60;563.20;;;;;;5047376;28;20033;-71
2021/04/12 13:37:28;;;;;;;13.15;7.53;;;1356.90;588.80;;;;;;5046374;28;20130;-71
2021/04/12 13:39:59;;;;;;;16.40;7.57;;;1382.50;588.80;;;;;;5044974;28;20056;-72
2021/04/12 13:42:33;;;;;;;16.55;8.10;;;1382.80;563.20;;;;;;5049785;28;20021;-72
2021/04/12 13:45:09;;;;;;;22.00;10.57;;;1305.90;563.20;;;;;;5048946;28;20056;-73
2021/04/12 13:47:45;;;;;;;16.42;6.75;;;1229.10;614.40;;;;;;5049643;28;20056;-70
2021/04/12 13:50:14;;;;;;;22.25;9.70;;;1177.90;588.80;;;;;;5050394;28;20053;-70
2021/04/12 13:52:51;;;;;;;21.30;9.38;;;1228.90;614.40;;;;;;5047917;28;20022;-71
2021/04/12 13:55:29;;;;;;;58.58;30.75;;;1178.40;588.80;;;;;;5030706;28;20087;-70
2021/04/12 13:58:02;;;;;;;14.80;8.20;;;1229.20;614.40;;;;;;5051624;28;20035;-70